Time;durP1;ratioP1;P1;durP2;ratioP2;P2;SDS_P1;SDS_P2;PMS_P1;PMS_P2;Temp;Humidity;BMP_temperature;BMP_pressure;BME280_temperature;BME280_humidity;BME280_pressure;Samples;Min_cycle;Max_cycle;Signal;HPM_P1;HPM_P2
2022/09/04 00:02:05;;;;;;;13.15;8.32;;;;;;;14.56;100.00;97377.19;5048570;28;20045;-62
2022/09/04 00:04:46;;;;;;;15.40;8.85;;;;;;;14.41;100.00;97374.53;5048437;28;20041;-62
2022/09/04 00:07:22;;;;;;;13.07;8.65;;;;;;;14.44;100.00;97373.97;5048108;28;20287;-63
2022/09/04 00:10:08;;;;;;;15.45;9.02;;;;;;;14.44;100.00;97385.69;5048536;28;20048;-63
2022/09/04 00:12:47;;;;;;;16.35;9.18;;;;;;;14.50;100.00;97372.03;5048360;28;20045;-63
2022/09/04 00:15:21;;;;;;;17.33;9.90;;;;;;;14.47;100.00;97375.31;5052843;28;20037;-62
2022/09/04 00:17:55;;;;;;;13.70;8.77;;;;;;;14.40;100.00;97372.88;5048532;28;20593;-63
2022/09/04 00:20:46;;;;;;;15.38;9.13;;;;;;;14.29;100.00;97381.09;5046991;28;20064;-62
2022/09/04 00:23:37;;;;;;;13.50;8.98;;;;;;;14.36;100.00;97378.09;5048317;28;20536;-63
2022/09/04 00:26:15;;;;;;;17.00;9.55;;;;;;;14.41;100.00;97380.00;5024496;28;20053;-63
2022/09/04 00:28:49;;;;;;;16.33;9.52;;;;;;;14.35;100.00;97373.75;5039063;28;20447;-63
2022/09/04 00:31:16;;;;;;;14.30;9.23;;;;;;;14.31;100.00;97372.66;5047447;28;20049;-63
2022/09/04 00:33:54;;;;;;;17.52;9.27;;;;;;;14.28;100.00;97382.19;5039388;28;20431;-63
2022/09/04 00:36:26;;;;;;;18.63;9.55;;;;;;;14.27;100.00;97382.47;5061819;28;20094;-63
2022/09/04 00:38:58;;;;;;;17.00;10.20;;;;;;;14.24;100.00;97380.28;5048703;28;20037;-63
2022/09/04 00:41:52;;;;;;;14.63;9.77;;;;;;;14.28;100.00;97389.53;5047887;28;20270;-63
2022/09/04 00:44:46;;;;;;;24.45;10.15;;;;;;;14.18;100.00;97391.19;5047638;28;20053;-62
2022/09/04 00:47:51;;;;;;;13.40;9.27;;;;;;;14.29;100.00;97383.00;5047965;28;20128;-63
2022/09/04 00:50:41;;;;;;;16.33;9.38;;;;;;;14.32;100.00;97387.91;5024603;28;20050;-63
2022/09/04 00:53:28;;;;;;;14.18;8.30;;;;;;;14.28;100.00;97390.38;5047355;28;20466;-63
2022/09/04 00:56:28;;;;;;;14.45;8.43;;;;;;;14.32;100.00;97390.63;5046087;28;20040;-63
2022/09/04 00:59:19;;;;;;;12.52;7.70;;;;;;;14.25;100.00;97396.34;5038676;28;20087;-62
2022/09/04 01:01:46;;;;;;;11.32;8.18;;;;;;;14.25;100.00;97395.53;5041943;28;20064;-62
2022/09/04 01:04:31;;;;;;;14.43;8.52;;;;;;;14.20;100.00;97396.38;5034889;28;20095;-63
2022/09/04 01:07:32;;;;;;;12.50;8.13;;;;;;;14.23;100.00;97397.72;5047012;28;20408;-62
2022/09/04 01:10:05;;;;;;;10.95;7.70;;;;;;;14.16;100.00;97406.97;5046173;28;20045;-63
2022/09/04 01:12:36;;;;;;;13.25;8.02;;;;;;;14.12;100.00;97402.38;5047142;28;20045;-63
2022/09/04 01:15:03;;;;;;;12.25;6.80;;;;;;;14.11;100.00;97403.47;5046610;28;20036;-62
2022/09/04 01:17:39;;;;;;;12.48;8.13;;;;;;;14.15;100.00;97409.97;5046547;28;20463;-63
2022/09/04 01:20:25;;;;;;;12.65;7.30;;;;;;;14.13;100.00;97413.00;5046140;28;20037;-63
2022/09/04 01:23:13;;;;;;;11.75;7.65;;;;;;;14.00;100.00;97418.97;5046609;28;20052;-62
2022/09/04 01:26:08;;;;;;;11.52;7.93;;;;;;;13.98;100.00;97423.88;5046120;28;20109;-63
2022/09/04 01:29:04;;;;;;;11.10;7.55;;;;;;;14.19;100.00;97427.41;5046259;28;20516;-63
2022/09/04 01:31:40;;;;;;;18.25;8.68;;;;;;;14.18;100.00;97423.06;5046672;28;20520;-63
2022/09/04 01:34:26;;;;;;;10.98;7.18;;;;;;;14.08;100.00;97418.44;5046263;28;20051;-63
2022/09/04 01:37:04;;;;;;;10.48;6.97;;;;;;;14.10;100.00;97426.31;5046784;28;20094;-63
2022/09/04 01:39:33;;;;;;;9.73;6.47;;;;;;;14.09;100.00;97425.53;5046155;28;20314;-63
2022/09/04 01:42:10;;;;;;;13.27;6.75;;;;;;;13.97;100.00;97428.50;5046630;28;20107;-63
2022/09/04 01:44:37;;;;;;;9.70;6.55;;;;;;;14.04;100.00;97426.34;5047040;28;20049;-63
2022/09/04 01:47:35;;;;;;;11.02;6.65;;;;;;;13.91;100.00;97427.72;5045980;28;20440;-63
2022/09/04 01:50:10;;;;;;;9.73;6.68;;;;;;;14.00;100.00;97430.69;5046161;28;20047;-62
2022/09/04 01:53:09;;;;;;;10.68;7.13;;;;;;;14.00;100.00;97438.84;5046205;28;20044;-63
2022/09/04 01:55:59;;;;;;;9.43;6.40;;;;;;;13.91;100.00;97437.78;5046086;28;20041;-63
2022/09/04 01:58:54;;;;;;;9.63;6.80;;;;;;;13.88;100.00;97436.41;5046124;28;20049;-63
2022/09/04 02:01:44;;;;;;;8.32;6.28;;;;;;;13.85;100.00;97441.56;5027217;28;20053;-62
2022/09/04 02:04:36;;;;;;;8.75;6.20;;;;;;;13.56;100.00;97433.94;5033243;28;20398;-63
2022/09/04 02:07:15;;;;;;;8.45;6.10;;;;;;;13.64;100.00;97428.78;5045653;28;20053;-62
2022/09/04 02:10:07;;;;;;;10.45;7.00;;;;;;;13.61;100.00;97444.84;5045125;28;20048;-62
2022/09/04 02:12:41;;;;;;;;;;;;;;;13.57;100.00;97435.56;5045281;28;20063;-63
2022/09/04 02:15:13;;;;;;;10.30;6.38;;;;;;;13.53;100.00;97438.03;5047579;28;19920;-62
2022/09/04 02:18:01;;;;;;;10.07;7.18;;;;;;;13.50;100.00;97435.84;5045670;28;20048;-62
2022/09/04 02:20:31;;;;;;;9.80;6.43;;;;;;;13.51;100.00;97451.06;5044949;28;20041;-62
2022/09/04 02:23:12;;;;;;;11.30;7.32;;;;;;;13.51;100.00;97457.34;5045022;28;20048;-63
2022/09/04 02:26:04;;;;;;;9.23;7.07;;;;;;;13.51;100.00;97457.34;5044278;28;20040;-63
2022/09/04 02:28:47;;;;;;;12.05;6.85;;;;;;;13.56;100.00;97448.34;5045802;28;20211;-63
2022/09/04 02:31:31;;;;;;;9.52;5.85;;;;;;;13.53;100.00;97449.72;5024963;28;20424;-63
2022/09/04 02:34:04;;;;;;;9.98;7.05;;;;;;;13.45;100.00;97447.47;5028796;28;20041;-63
2022/09/04 02:36:45;;;;;;;7.32;6.00;;;;;;;13.32;100.00;97448.00;5047652;28;20116;-62
2022/09/04 02:39:34;;;;;;;9.68;6.35;;;;;;;13.29;100.00;97449.34;5046040;28;20067;-62
2022/09/04 02:42:38;;;;;;;7.97;5.65;;;;;;;13.26;100.00;97447.16;5045218;28;20134;-62
2022/09/04 02:45:18;;;;;;;10.82;6.80;;;;;;;13.27;100.00;97448.81;5050499;28;20094;-62
2022/09/04 02:47:57;;;;;;;10.90;6.78;;;;;;;13.34;100.00;97449.38;5024991;28;20041;-63
2022/09/04 02:50:45;;;;;;;11.85;6.30;;;;;;;13.32;100.00;97454.25;5039079;28;20094;-63
2022/09/04 02:53:29;;;;;;;10.18;6.13;;;;;;;13.33;100.00;97444.19;5032062;28;20052;-63
2022/09/04 02:56:30;;;;;;;9.27;6.07;;;;;;;13.29;100.00;97449.34;5044494;28;20048;-62
2022/09/04 02:59:23;;;;;;;9.55;6.75;;;;;;;13.25;100.00;97454.53;5044727;28;20045;-63
2022/09/04 03:02:01;;;;;;;7.53;5.35;;;;;;;13.23;100.00;97450.44;5044770;28;20058;-63
2022/09/04 03:05:09;;;;;;;7.63;4.72;;;;;;;13.25;100.00;97449.09;5045337;28;20107;-63
2022/09/04 03:07:44;;;;;;;7.03;5.10;;;;;;;13.19;100.00;97454.78;5044375;28;20052;-62
2022/09/04 03:10:23;;;;;;;8.48;5.82;;;;;;;13.19;100.00;97454.78;5045205;28;20095;-63
2022/09/04 03:12:56;;;;;;;7.20;4.70;;;;;;;13.14;100.00;97455.56;5045090;28;20048;-62
2022/09/04 03:15:35;;;;;;;8.27;4.68;;;;;;;13.11;100.00;97462.34;5049075;28;20073;-61
2022/09/04 03:18:12;;;;;;;6.68;4.70;;;;;;;13.13;100.00;97456.66;5049165;28;20064;-63
2022/09/04 03:20:50;;;;;;;7.88;5.13;;;;;;;13.13;100.00;97453.94;5048573;28;20670;-63
2022/09/04 03:23:49;;;;;;;7.10;4.85;;;;;;;13.07;100.00;97457.69;5048747;28;20049;-63
2022/09/04 03:26:22;;;;;;;6.40;4.22;;;;;;;12.97;100.00;97453.88;5026076;28;20334;-62
2022/09/04 03:29:41;;;;;;;8.75;5.68;;;;;;;12.90;100.00;97464.16;5040111;28;20053;-62
2022/09/04 03:32:22;;;;;;;7.53;5.10;;;;;;;12.86;100.00;97460.31;5019183;28;20230;-63
2022/09/04 03:34:58;;;;;;;9.30;5.32;;;;;;;12.86;100.00;97468.47;5049673;28;20049;-62
2022/09/04 03:37:39;;;;;;;7.60;4.80;;;;;;;12.83;100.00;97460.88;5028700;28;20034;-62
2022/09/04 03:40:24;;;;;;;8.10;5.03;;;;;;;12.83;100.00;97471.75;5035249;28;20069;-63
2022/09/04 03:43:01;;;;;;;6.65;5.00;;;;;;;12.78;100.00;97461.66;5048910;28;20543;-63
2022/09/04 03:45:42;;;;;;;10.32;5.00;;;;;;;12.60;100.00;97463.75;5050531;28;20087;-62
2022/09/04 03:48:24;;;;;;;6.75;4.53;;;;;;;12.50;100.00;97466.41;5048459;28;20045;-63
2022/09/04 03:51:11;;;;;;;6.90;5.13;;;;;;;12.56;100.00;97467.25;5047923;28;20033;-63
2022/09/04 03:53:55;;;;;;;7.72;5.15;;;;;;;12.63;100.00;97475.19;5049090;28;20028;-63
2022/09/04 03:56:31;;;;;;;11.68;5.28;;;;;;;12.55;100.00;97473.75;5047627;28;20041;-62
2022/09/04 03:59:04;;;;;;;6.30;4.63;;;;;;;12.51;100.00;97475.34;5048083;28;20519;-62
2022/09/04 04:02:18;;;;;;;8.43;4.90;;;;;;;12.53;100.00;97484.88;5047751;28;20041;-62
2022/09/04 04:05:15;;;;;;;8.05;4.35;;;;;;;12.45;100.00;97488.91;5029344;28;20049;-63
2022/09/04 04:08:06;;;;;;;8.32;5.00;;;;;;;12.41;100.00;97489.69;5028609;28;20102;-63
2022/09/04 04:10:57;;;;;;;8.90;4.93;;;;;;;12.25;100.00;97492.31;5045504;28;20041;-62
2022/09/04 04:13:33;;;;;;;7.28;4.03;;;;;;;12.18;100.00;97494.41;5048472;28;20040;-63
2022/09/04 04:16:12;;;;;;;6.60;4.82;;;;;;;12.19;100.00;97494.16;5043938;28;20106;-62
2022/09/04 04:18:38;;;;;;;7.40;4.80;;;;;;;12.23;100.00;97498.00;5048108;28;20052;-63
2022/09/04 04:21:30;;;;;;;8.57;4.15;;;;;;;12.23;100.00;97502.59;5047818;28;20123;-63
2022/09/04 04:24:01;;;;;;;10.13;4.80;;;;;;;12.15;100.00;97498.47;5047834;28;20095;-63
2022/09/04 04:26:39;;;;;;;12.75;5.20;;;;;;;12.08;100.00;97506.84;5046760;28;20048;-63
2022/09/04 04:29:53;;;;;;;8.95;5.63;;;;;;;12.12;100.00;97511.75;5047272;28;20432;-63
2022/09/04 04:32:57;;;;;;;7.50;5.10;;;;;;;12.10;100.00;97512.00;5037266;28;20114;-63
2022/09/04 04:35:48;;;;;;;8.35;5.55;;;;;;;12.10;100.00;97515.50;5050108;28;20156;-63
2022/09/04 04:38:46;;;;;;;11.80;5.37;;;;;;;12.17;100.00;97518.00;5047168;28;20075;-62
2022/09/04 04:42:04;;;;;;;7.75;5.20;;;;;;;12.09;100.00;97524.75;5047690;28;20045;-62
2022/09/04 04:45:48;;;;;;;9.77;6.05;;;;;;;12.00;100.00;97528.97;5038601;28;20074;-63
2022/09/04 04:48:00;;;;;;;12.10;5.50;;;;;;;11.93;100.00;97528.34;5027301;28;20060;-63
2022/09/04 04:50:41;;;;;;;8.77;5.15;;;;;;;12.01;100.00;97533.31;5043515;28;20076;-62
2022/09/04 04:53:30;;;;;;;10.40;5.75;;;;;;;12.11;100.00;97529.91;5047747;28;20741;-63
2022/09/04 04:56:30;;;;;;;7.70;5.25;;;;;;;12.22;100.00;97537.09;5047128;28;20563;-63
2022/09/04 04:59:22;;;;;;;6.80;4.88;;;;;;;12.34;100.00;97542.31;5046384;28;20044;-63
2022/09/04 05:02:00;;;;;;;7.10;4.95;;;;;;;12.39;100.00;97540.72;5047344;28;20033;-63
2022/09/04 05:04:45;;;;;;;6.45;4.53;;;;;;;12.39;100.00;97543.44;5027807;28;20099;-63
2022/09/04 05:07:17;;;;;;;7.35;4.18;;;;;;;12.27;100.00;97540.91;5046109;28;20067;-62
2022/09/04 05:09:55;;;;;;;6.55;4.30;;;;;;;12.24;100.00;97544.97;5047189;28;20463;-62
2022/09/04 05:12:53;;;;;;;7.68;5.32;;;;;;;12.27;100.00;97547.16;5046985;28;20091;-63
2022/09/04 05:15:31;;;;;;;6.35;4.75;;;;;;;12.31;100.00;97555.63;5042489;28;20045;-62
2022/09/04 05:18:13;;;;;;;8.77;5.25;;;;;;;12.32;100.00;97555.31;5058524;28;20032;-62
2022/09/04 05:20:52;;;;;;;6.13;4.47;;;;;;;12.33;100.00;97558.88;5046366;28;20049;-63
2022/09/04 05:23:35;;;;;;;6.32;4.53;;;;;;;12.36;100.00;97566.50;5046845;28;20098;-63
2022/09/04 05:26:29;;;;;;;6.25;4.10;;;;;;;12.38;100.00;97569.78;5045978;28;20508;-62
2022/09/04 05:28:59;;;;;;;7.05;4.60;;;;;;;12.45;100.00;97564.13;5046480;28;20049;-63
2022/09/04 05:31:36;;;;;;;8.65;5.18;;;;;;;12.45;100.00;97570.38;5045479;28;20441;-65
2022/09/04 05:34:11;;;;;;;8.07;5.03;;;;;;;12.53;100.00;97577.22;5046713;28;20059;-64
2022/09/04 05:37:02;;;;;;;10.68;5.47;;;;;;;12.64;100.00;97585.47;5060333;28;20037;-63
2022/09/04 05:39:53;;;;;;;7.53;5.28;;;;;;;12.60;100.00;97585.97;5046806;28;20045;-64
2022/09/04 05:42:41;;;;;;;9.43;4.82;;;;;;;12.59;100.00;97587.06;5046256;28;20053;-65
2022/09/04 05:45:19;;;;;;;8.07;4.90;;;;;;;12.63;100.00;97595.50;5051964;28;20041;-64
2022/09/04 05:48:05;;;;;;;7.60;5.82;;;;;;;12.65;100.00;97604.22;5053242;28;20400;-65
2022/09/04 05:50:54;;;;;;;10.55;5.70;;;;;;;12.68;100.00;97608.31;5042860;28;20049;-64
2022/09/04 05:53:33;;;;;;;7.18;4.88;;;;;;;12.70;100.00;97608.88;5046622;28;20045;-64
2022/09/04 05:56:06;;;;;;;6.93;4.57;;;;;;;12.82;100.00;97614.94;5045821;28;20048;-63
2022/09/04 05:58:49;;;;;;;7.63;4.45;;;;;;;12.94;100.00;97609.31;5045532;28;20041;-64
2022/09/04 06:01:49;;;;;;;7.60;5.18;;;;;;;13.09;100.00;97619.44;5046336;28;20493;-63
2022/09/04 06:04:59;;;;;;;7.15;5.05;;;;;;;13.18;100.00;97621.69;5026458;28;20046;-65
2022/09/04 06:07:38;;;;;;;7.90;5.05;;;;;;;13.21;100.00;97622.00;5044011;28;20061;-64
2022/09/04 06:10:29;;;;;;;6.85;4.80;;;;;;;13.30;100.00;97621.50;5045526;28;20037;-63
2022/09/04 06:13:22;;;;;;;8.48;5.15;;;;;;;13.36;100.00;97623.97;5046525;28;20045;-64
2022/09/04 06:16:45;;;;;;;10.30;5.40;;;;;;;13.50;100.00;97628.97;5048557;28;20049;-64
2022/09/04 06:19:45;;;;;;;6.72;4.95;;;;;;;13.56;100.00;97627.09;5003767;28;20046;-64
2022/09/04 06:22:46;;;;;;;9.80;5.78;;;;;;;13.70;100.00;97636.41;5010277;28;20049;-64
2022/09/04 06:25:36;;;;;;;8.25;5.20;;;;;;;13.84;100.00;97641.34;5046540;28;20073;-64
2022/09/04 06:28:14;;;;;;;6.80;5.05;;;;;;;13.90;100.00;97643.00;5045115;28;20037;-64
2022/09/04 06:31:05;;;;;;;9.05;4.75;;;;;;;13.97;100.00;97646.28;5045864;28;20107;-64
2022/09/04 06:33:41;;;;;;;8.23;4.55;;;;;;;14.09;100.00;97647.97;5045413;28;20519;-64
2022/09/04 06:36:26;;;;;;;7.18;4.97;;;;;;;14.21;100.00;97650.44;5046259;28;20561;-64
2022/09/04 06:39:09;;;;;;;7.35;4.53;;;;;;;14.28;100.00;97645.56;5028214;28;20045;-64
2022/09/04 06:41:57;;;;;;;6.13;4.05;;;;;;;14.41;100.00;97649.66;5045340;28;20053;-64
2022/09/04 06:44:44;;;;;;;6.55;4.20;;;;;;;14.50;100.00;97649.94;5045496;28;20051;-64
2022/09/04 06:47:41;;;;;;;7.30;4.25;;;;;;;14.62;100.00;97645.03;5030069;28;20060;-64
2022/09/04 06:50:17;;;;;;;8.13;4.18;;;;;;;14.70;100.00;97641.78;5039866;28;20049;-64
2022/09/04 06:52:58;;;;;;;6.13;4.05;;;;;;;14.85;100.00;97647.53;5045289;28;20075;-64
2022/09/04 06:55:38;;;;;;;5.93;3.67;;;;;;;14.93;100.00;97642.34;5045468;28;20398;-64
2022/09/04 06:58:13;;;;;;;6.55;4.03;;;;;;;15.02;100.00;97648.06;5045269;28;20409;-64
2022/09/04 07:01:00;;;;;;;7.35;3.78;;;;;;;15.13;100.00;97658.94;5045653;28;20489;-67
2022/09/04 07:03:42;;;;;;;6.45;3.47;;;;;;;15.21;100.00;97653.78;5045178;28;20049;-64
2022/09/04 07:06:28;;;;;;;6.88;4.05;;;;;;;15.40;100.00;97664.09;5051748;28;20397;-64
2022/09/04 07:08:58;;;;;;;6.47;4.05;;;;;;;15.62;100.00;97657.47;5025616;28;20567;-64
2022/09/04 07:11:57;;;;;;;6.53;4.13;;;;;;;15.81;100.00;97671.34;5040388;28;20543;-64
2022/09/04 07:14:43;;;;;;;6.40;3.80;;;;;;;15.99;100.00;97669.94;5039740;28;20068;-64
2022/09/04 07:17:30;;;;;;;6.63;3.50;;;;;;;16.15;100.00;97680.78;5044809;28;20041;-64
2022/09/04 07:20:34;;;;;;;4.68;3.20;;;;;;;16.34;100.00;97671.94;5044838;28;20516;-64
2022/09/04 07:23:27;;;;;;;6.00;3.33;;;;;;;16.40;100.00;97678.19;5009125;28;20104;-64
2022/09/04 07:26:31;;;;;;;5.80;3.42;;;;;;;16.46;100.00;97677.88;5019986;28;20556;-65
2022/09/04 07:29:09;;;;;;;4.32;2.90;;;;;;;16.48;100.00;97680.34;5021316;28;20046;-64
2022/09/04 07:31:42;;;;;;;5.88;2.85;;;;;;;16.62;100.00;97677.78;5026144;28;20050;-66
2022/09/04 07:34:35;;;;;;;6.78;2.47;;;;;;;16.74;100.00;97680.94;5045186;28;20037;-64
2022/09/04 07:37:28;;;;;;;6.53;2.90;;;;;;;16.92;100.00;97680.56;5028391;28;20111;-65
2022/09/04 07:40:15;;;;;;;4.97;2.20;;;;;;;16.94;100.00;97675.59;5045154;28;20052;-65
2022/09/04 07:42:51;;;;;;;5.55;2.75;;;;;;;17.08;100.00;97689.47;5044170;28;20091;-64
2022/09/04 07:45:21;;;;;;;4.70;2.40;;;;;;;17.11;100.00;97688.91;5051831;28;20492;-64
2022/09/04 07:48:04;;;;;;;3.50;2.20;;;;;;;17.24;100.00;97696.44;5051460;28;20037;-65
2022/09/04 07:50:39;;;;;;;6.05;2.45;;;;;;;17.27;100.00;97697.78;5044543;28;20044;-64
2022/09/04 07:53:18;;;;;;;3.28;2.13;;;;;;;17.41;100.00;97700.66;5045248;28;20069;-65
2022/09/04 07:55:49;;;;;;;3.03;1.77;;;;;;;17.52;100.00;97696.72;5043898;28;20036;-65
2022/09/04 07:58:49;;;;;;;3.72;2.20;;;;;;;17.55;100.00;97698.88;5044577;28;20455;-64
2022/09/04 08:01:25;;;;;;;5.70;2.17;;;;;;;17.66;100.00;97710.53;5045109;28;20099;-64
2022/09/04 08:04:09;;;;;;;2.90;1.70;;;;;;;17.71;98.96;97695.16;5031150;28;20515;-64
2022/09/04 08:06:59;;;;;;;3.63;1.98;;;;;;;17.75;98.03;97705.25;5063108;28;20074;-65
2022/09/04 08:09:35;;;;;;;3.30;1.85;;;;;;;17.86;93.83;97710.59;5048260;28;20126;-65
2022/09/04 08:12:48;;;;;;;3.78;1.70;;;;;;;18.07;92.00;97716.66;5047867;28;20033;-65
2022/09/04 08:15:46;;;;;;;4.38;1.70;;;;;;;18.05;91.50;97716.13;5025108;28;20077;-64
2022/09/04 08:18:29;;;;;;;4.20;1.58;;;;;;;18.10;91.79;97713.38;5046944;28;20052;-64
2022/09/04 08:21:08;;;;;;;2.50;1.63;;;;;;;18.19;91.04;97717.09;5047579;28;20500;-64
2022/09/04 08:23:58;;;;;;;3.17;1.67;;;;;;;18.24;90.47;97720.88;5048344;28;20068;-65
2022/09/04 08:26:51;;;;;;;2.85;1.67;;;;;;;18.34;93.77;97728.94;5034548;28;20067;-64
2022/09/04 08:29:39;;;;;;;3.05;1.48;;;;;;;18.49;92.20;97733.41;5047739;28;20037;-64
2022/09/04 08:32:36;;;;;;;4.07;1.23;;;;;;;18.88;84.65;97728.75;5046698;28;20048;-65
2022/09/04 08:35:12;;;;;;;2.65;1.40;;;;;;;18.80;85.57;97735.69;5043791;28;20098;-65
2022/09/04 08:38:01;;;;;;;1.95;1.30;;;;;;;18.82;82.86;97729.94;5048944;28;20114;-64
2022/09/04 08:40:46;;;;;;;3.03;1.30;;;;;;;18.83;82.67;97740.59;5047980;28;20052;-65
2022/09/04 08:43:56;;;;;;;5.72;1.45;;;;;;;18.87;83.35;97732.59;5039153;28;20048;-64
2022/09/04 08:46:47;;;;;;;1.92;1.10;;;;;;;19.05;82.09;97735.63;5059152;28;20504;-65
2022/09/04 08:49:43;;;;;;;3.08;1.50;;;;;;;19.18;81.38;97734.06;5061787;28;20048;-64
2022/09/04 08:52:37;;;;;;;2.65;1.30;;;;;;;19.39;79.59;97742.78;5047493;28;20040;-65
2022/09/04 08:55:04;;;;;;;1.77;1.10;;;;;;;19.50;78.55;97744.22;5047755;28;20488;-65
2022/09/04 08:57:37;;;;;;;3.22;1.23;;;;;;;19.46;77.59;97750.63;5046722;28;20037;-64
2022/09/04 09:00:20;;;;;;;3.45;1.85;;;;;;;19.48;74.96;97749.22;5037530;28;20098;-64
2022/09/04 09:02:59;;;;;;;3.83;1.88;;;;;;;19.44;75.64;97742.69;5047176;28;20412;-64
2022/09/04 09:05:54;;;;;;;1.73;1.20;;;;;;;19.53;77.19;97742.00;5055114;28;20037;-65
2022/09/04 09:08:30;;;;;;;2.28;1.25;;;;;;;19.66;77.48;97746.69;5067198;28;20043;-64
2022/09/04 09:11:09;;;;;;;3.58;1.67;;;;;;;19.83;78.06;97745.28;5048819;28;20120;-65
2022/09/04 09:14:13;;;;;;;3.40;1.52;;;;;;;20.10;78.01;97738.19;5047037;28;20037;-65
2022/09/04 09:16:53;;;;;;;2.75;1.30;;;;;;;20.27;75.70;97743.09;5056691;28;20045;-65
2022/09/04 09:19:28;;;;;;;2.30;1.30;;;;;;;20.37;73.14;97742.88;5046835;28;20037;-65
2022/09/04 09:22:09;;;;;;;3.40;1.58;;;;;;;20.36;75.06;97740.41;5046750;28;20037;-64
2022/09/04 09:24:59;;;;;;;2.08;1.30;;;;;;;20.48;72.70;97739.88;5047235;28;20060;-65
2022/09/04 09:27:56;;;;;;;2.25;1.73;;;;;;;20.41;73.40;97743.06;5045835;28;20091;-65
2022/09/04 09:30:24;;;;;;;2.10;1.20;;;;;;;20.50;72.45;97745.91;5046867;28;20098;-65
2022/09/04 09:33:15;;;;;;;2.53;1.40;;;;;;;20.46;71.65;97739.38;5046825;28;20228;-64
2022/09/04 09:36:08;;;;;;;3.58;1.48;;;;;;;20.61;71.07;97750.06;5046411;28;20489;-65
2022/09/04 09:38:49;;;;;;;2.80;1.40;;;;;;;20.48;70.54;97740.72;5040231;28;20060;-64
2022/09/04 09:41:40;;;;;;;3.25;1.40;;;;;;;20.45;70.70;97738.56;5045933;28;20758;-65
2022/09/04 09:44:16;;;;;;;4.13;1.25;;;;;;;20.51;70.88;97742.03;5043323;28;20059;-65
2022/09/04 09:47:12;;;;;;;2.30;1.30;;;;;;;20.74;71.02;97731.06;5047066;28;20175;-65
2022/09/04 09:49:58;;;;;;;3.45;1.35;;;;;;;20.85;71.75;97737.13;5040422;28;20523;-65
2022/09/04 09:52:31;;;;;;;2.28;1.48;;;;;;;20.87;69.64;97735.75;5043001;28;20451;-64
2022/09/04 09:55:28;;;;;;;4.30;1.33;;;;;;;20.88;67.42;97734.63;5044312;28;20072;-65
2022/09/04 09:58:20;;;;;;;2.13;1.13;;;;;;;20.85;67.21;97734.38;5045259;28;20036;-65
2022/09/04 10:00:58;;;;;;;3.28;1.45;;;;;;;20.90;68.57;97737.06;5044685;28;20047;-65
2022/09/04 10:03:37;;;;;;;2.25;1.25;;;;;;;20.97;68.57;97733.88;5043876;28;20041;-65
2022/09/04 10:06:23;;;;;;;2.33;1.10;;;;;;;21.02;67.85;97737.34;5046222;28;20086;-65
2022/09/04 10:09:17;;;;;;;2.83;1.20;;;;;;;21.02;67.64;97731.81;5046090;28;20319;-65
2022/09/04 10:12:24;;;;;;;2.63;1.20;;;;;;;21.10;67.07;97732.19;5029573;28;20455;-65
2022/09/04 10:14:58;;;;;;;1.85;1.00;;;;;;;21.24;65.71;97732.13;5045809;28;20044;-65
2022/09/04 10:18:05;;;;;;;2.00;1.20;;;;;;;21.34;65.84;97728.31;5042600;28;20083;-65
2022/09/04 10:20:56;;;;;;;2.90;1.30;;;;;;;21.35;65.57;97725.25;5043858;28;20424;-65
2022/09/04 10:23:44;;;;;;;2.58;1.17;;;;;;;21.56;64.36;97725.50;5040936;28;20040;-65
2022/09/04 10:26:14;;;;;;;3.38;1.10;;;;;;;21.76;63.63;97711.53;5044380;28;20048;-65
2022/09/04 10:28:43;;;;;;;2.25;1.05;;;;;;;21.87;61.29;97714.81;5045107;28;20063;-65
2022/09/04 10:31:16;;;;;;;1.95;1.10;;;;;;;;;;5044170;28;20045;-65
2022/09/04 10:34:01;;;;;;;2.10;0.95;;;;;;;22.24;62.63;97715.41;5045540;28;20040;-64
2022/09/04 10:36:36;;;;;;;1.88;1.10;;;;;;;22.41;61.88;97709.09;5057175;28;20045;-65
2022/09/04 10:42:29;;;;;;;2.33;0.88;;;;;;;22.12;60.39;97713.28;5041058;28;20064;-65
2022/09/04 10:45:08;;;;;;;1.90;1.00;;;;;;;22.17;61.68;97712.31;5048988;28;20499;-65
2022/09/04 10:47:57;;;;;;;2.83;1.20;;;;;;;22.11;62.11;97722.66;5051369;28;20052;-65
2022/09/04 10:50:45;;;;;;;3.15;1.10;;;;;;;22.07;62.32;97722.50;5044532;28;20055;-65
2022/09/04 10:53:25;;;;;;;2.85;1.00;;;;;;;22.02;61.45;97721.84;5045748;28;20045;-66
2022/09/04 10:56:22;;;;;;;2.50;0.98;;;;;;;;;;5044986;28;20044;-66
2022/09/04 10:59:02;;;;;;;3.88;1.10;;;;;;;22.00;61.60;97719.41;5043790;28;20049;-66
2022/09/04 11:01:40;;;;;;;1.98;1.50;;;;;;;21.95;62.65;97714.03;5045248;28;20045;-65
2022/09/04 11:04:26;;;;;;;1.73;1.02;;;;;;;21.85;60.68;97725.34;5045396;28;20041;-66
2022/09/04 11:07:17;;;;;;;2.15;1.10;;;;;;;21.65;60.93;97720.06;5062937;28;20041;-65
2022/09/04 11:10:03;;;;;;;2.95;1.20;;;;;;;21.67;61.68;97720.53;5045298;28;20384;-65
2022/09/04 11:12:42;;;;;;;1.98;1.05;;;;;;;21.93;60.64;97717.09;5045497;28;20397;-65
2022/09/04 11:15:36;;;;;;;1.85;0.98;;;;;;;22.09;61.13;97717.50;5050609;28;20036;-65
2022/09/04 11:18:44;;;;;;;3.08;1.08;;;;;;;22.27;60.39;97716.72;5043846;28;20299;-65
2022/09/04 11:21:29;;;;;;;2.05;1.00;;;;;;;22.40;58.36;97726.00;5018177;28;20057;-65
2022/09/04 11:24:37;;;;;;;1.75;1.02;;;;;;;22.56;59.12;97710.63;5040563;28;20041;-65
2022/09/04 11:27:13;;;;;;;6.68;1.48;;;;;;;22.85;57.70;97711.13;5034926;28;20044;-66
2022/09/04 11:29:58;;;;;;;2.85;1.20;;;;;;;23.10;56.41;97714.19;5045275;28;20041;-66
2022/09/04 11:32:30;;;;;;;4.40;1.20;;;;;;;23.07;56.10;97701.06;5045211;28;20056;-66
2022/09/04 11:35:25;;;;;;;2.88;1.33;;;;;;;23.25;56.52;97708.16;5038382;28;20463;-66
2022/09/04 11:38:23;;;;;;;2.28;1.10;;;;;;;23.62;56.51;97704.22;5048265;28;20052;-65
2022/09/04 11:41:36;;;;;;;2.72;1.10;;;;;;;23.81;55.04;97705.75;5044531;28;20451;-66
2022/09/04 11:44:27;;;;;;;2.30;1.13;;;;;;;23.73;56.78;97710.19;5035015;28;20095;-65
2022/09/04 11:47:16;;;;;;;2.00;1.20;;;;;;;23.32;57.59;97710.41;5042312;28;20107;-65
2022/09/04 11:50:07;;;;;;;2.78;1.20;;;;;;;23.05;58.32;97708.84;5045062;28;20032;-65
2022/09/04 11:53:10;;;;;;;3.72;1.40;;;;;;;23.01;57.56;97711.44;5043679;28;20064;-65
2022/09/04 11:56:04;;;;;;;2.25;1.13;;;;;;;22.61;57.54;97712.41;5045038;28;20045;-65
2022/09/04 11:58:49;;;;;;;3.42;1.23;;;;;;;22.43;58.79;97714.31;5044199;28;20045;-65
2022/09/04 12:01:25;;;;;;;2.47;1.20;;;;;;;22.36;59.05;97709.25;5041183;28;20053;-64
2022/09/04 12:04:10;;;;;;;2.13;1.30;;;;;;;22.22;60.31;97714.91;5037866;28;20045;-65
2022/09/04 12:07:11;;;;;;;3.08;1.25;;;;;;;22.42;59.48;97718.22;5044223;28;20094;-66
2022/09/04 12:09:59;;;;;;;2.65;1.30;;;;;;;22.66;59.02;97714.22;5037524;28;20041;-65
2022/09/04 12:12:32;;;;;;;2.17;1.20;;;;;;;22.68;58.17;97715.50;5029366;28;20524;-65
2022/09/04 12:15:19;;;;;;;3.83;1.40;;;;;;;22.87;57.25;97714.38;5046670;28;20036;-66
2022/09/04 12:18:16;;;;;;;3.00;1.27;;;;;;;23.12;56.71;97715.50;5068679;28;20477;-65
2022/09/04 12:21:16;;;;;;;3.95;1.45;;;;;;;23.13;55.49;97711.59;5050198;28;20466;-66
2022/09/04 12:24:03;;;;;;;4.57;1.13;;;;;;;23.18;55.57;97712.56;5047929;28;20418;-66
2022/09/04 12:27:00;;;;;;;1.73;0.90;;;;;;;23.32;55.03;97723.41;5048145;28;20037;-65
2022/09/04 12:29:37;;;;;;;1.55;1.05;;;;;;;23.62;55.04;97716.06;5048423;28;20037;-66
2022/09/04 12:32:25;;;;;;;2.60;1.10;;;;;;;23.94;53.37;97709.41;5047524;28;20048;-66
2022/09/04 12:35:00;;;;;;;4.15;1.10;;;;;;;23.95;52.76;97709.09;5050536;28;20040;-66
2022/09/04 12:37:48;;;;;;;2.45;1.10;;;;;;;23.46;53.01;97718.53;5067253;28;20044;-66
2022/09/04 12:40:41;;;;;;;3.53;1.15;;;;;;;23.47;52.55;97713.81;5055944;28;20055;-65
2022/09/04 12:43:15;;;;;;;3.08;1.20;;;;;;;23.72;53.88;97712.13;5047947;28;20041;-65
2022/09/04 12:45:56;;;;;;;2.97;1.08;;;;;;;24.35;52.73;97713.47;5057022;28;20040;-66
2022/09/04 12:48:57;;;;;;;1.83;0.98;;;;;;;24.65;50.24;97715.38;5067189;28;20090;-65
2022/09/04 12:51:34;;;;;;;4.30;1.10;;;;;;;24.68;47.69;97725.78;5027568;28;20049;-65
2022/09/04 12:54:12;;;;;;;2.17;1.20;;;;;;;24.93;47.73;97712.09;5029615;28;20052;-66
2022/09/04 12:57:10;;;;;;;2.85;1.20;;;;;;;25.03;47.19;97727.50;5046892;28;20045;-65